sensor_id;sensor_type;location;lat;lon;timestamp;temperature;humidity
32706;DHT22;19094;50.972;3.538;2024-01-16T00:01:44;8.50;58.10
32706;DHT22;19094;50.972;3.538;2024-01-16T00:04:13;8.50;58.10
32706;DHT22;19094;50.972;3.538;2024-01-16T00:06:40;8.50;58.10
32706;DHT22;19094;50.972;3.538;2024-01-16T00:09:06;8.50;58.00
32706;DHT22;19094;50.972;3.538;2024-01-16T00:11:32;8.40;57.90
32706;DHT22;19094;50.972;3.538;2024-01-16T00:13:58;8.50;58.00
32706;DHT22;19094;50.972;3.538;2024-01-16T00:16:23;8.50;57.80
32706;DHT22;19094;50.972;3.538;2024-01-16T00:18:49;8.50;58.00
32706;DHT22;19094;50.972;3.538;2024-01-16T00:21:15;8.40;57.90
32706;DHT22;19094;50.972;3.538;2024-01-16T00:23:41;8.40;57.80
32706;DHT22;19094;50.972;3.538;2024-01-16T00:26:06;8.40;57.90
32706;DHT22;19094;50.972;3.538;2024-01-16T00:28:32;8.50;57.80
32706;DHT22;19094;50.972;3.538;2024-01-16T00:30:58;8.40;57.80
32706;DHT22;19094;50.972;3.538;2024-01-16T00:33:24;8.30;57.80
32706;DHT22;19094;50.972;3.538;2024-01-16T00:35:50;8.30;57.80
32706;DHT22;19094;50.972;3.538;2024-01-16T00:38:15;8.30;57.70
32706;DHT22;19094;50.972;3.538;2024-01-16T00:40:41;8.30;58.00
32706;DHT22;19094;50.972;3.538;2024-01-16T00:43:07;8.30;57.80
32706;DHT22;19094;50.972;3.538;2024-01-16T00:45:33;8.30;57.90
32706;DHT22;19094;50.972;3.538;2024-01-16T00:47:59;8.30;57.70
32706;DHT22;19094;50.972;3.538;2024-01-16T00:50:25;8.30;57.60
32706;DHT22;19094;50.972;3.538;2024-01-16T00:52:52;8.30;57.70
32706;DHT22;19094;50.972;3.538;2024-01-16T00:55:18;8.20;57.50
32706;DHT22;19094;50.972;3.538;2024-01-16T00:57:43;8.20;57.70
32706;DHT22;19094;50.972;3.538;2024-01-16T01:00:09;8.20;57.70
32706;DHT22;19094;50.972;3.538;2024-01-16T01:02:37;8.20;57.70
32706;DHT22;19094;50.972;3.538;2024-01-16T01:05:03;8.20;57.70
32706;DHT22;19094;50.972;3.538;2024-01-16T01:07:28;8.20;57.50
32706;DHT22;19094;50.972;3.538;2024-01-16T01:09:54;8.20;57.60
32706;DHT22;19094;50.972;3.538;2024-01-16T01:12:20;8.10;57.90
32706;DHT22;19094;50.972;3.538;2024-01-16T01:14:46;8.20;57.80
32706;DHT22;19094;50.972;3.538;2024-01-16T01:17:12;8.20;57.60
32706;DHT22;19094;50.972;3.538;2024-01-16T01:19:38;8.20;57.60
32706;DHT22;19094;50.972;3.538;2024-01-16T01:22:04;8.20;57.60
32706;DHT22;19094;50.972;3.538;2024-01-16T01:24:30;8.10;57.60
32706;DHT22;19094;50.972;3.538;2024-01-16T01:26:56;8.20;57.70
32706;DHT22;19094;50.972;3.538;2024-01-16T01:29:22;8.10;57.70
32706;DHT22;19094;50.972;3.538;2024-01-16T01:31:47;8.10;57.60
32706;DHT22;19094;50.972;3.538;2024-01-16T01:34:13;8.10;57.70
32706;DHT22;19094;50.972;3.538;2024-01-16T01:36:39;8.10;57.60
32706;DHT22;19094;50.972;3.538;2024-01-16T01:39:05;8.10;57.60
32706;DHT22;19094;50.972;3.538;2024-01-16T01:41:31;8.20;57.50
32706;DHT22;19094;50.972;3.538;2024-01-16T01:43:57;8.10;57.40
32706;DHT22;19094;50.972;3.538;2024-01-16T01:46:23;8.10;57.50
32706;DHT22;19094;50.972;3.538;2024-01-16T01:48:50;8.20;57.40
32706;DHT22;19094;50.972;3.538;2024-01-16T01:51:19;8.10;57.50
32706;DHT22;19094;50.972;3.538;2024-01-16T01:53:46;8.10;57.50
32706;DHT22;19094;50.972;3.538;2024-01-16T01:56:22;8.10;57.30
32706;DHT22;19094;50.972;3.538;2024-01-16T01:58:52;8.10;57.30
32706;DHT22;19094;50.972;3.538;2024-01-16T02:01:19;8.10;57.30
32706;DHT22;19094;50.972;3.538;2024-01-16T02:03:46;8.10;57.30
32706;DHT22;19094;50.972;3.538;2024-01-16T02:06:13;8.00;57.40
32706;DHT22;19094;50.972;3.538;2024-01-16T02:08:40;8.00;57.30
32706;DHT22;19094;50.972;3.538;2024-01-16T02:11:06;8.00;57.30
32706;DHT22;19094;50.972;3.538;2024-01-16T02:13:32;8.00;57.30
32706;DHT22;19094;50.972;3.538;2024-01-16T02:15:58;7.90;57.40
32706;DHT22;19094;50.972;3.538;2024-01-16T02:18:24;8.00;57.50
32706;DHT22;19094;50.972;3.538;2024-01-16T02:20:50;7.90;57.40
32706;DHT22;19094;50.972;3.538;2024-01-16T02:23:22;7.90;57.50
32706;DHT22;19094;50.972;3.538;2024-01-16T02:25:49;8.00;57.40
32706;DHT22;19094;50.972;3.538;2024-01-16T02:28:15;8.00;57.40
32706;DHT22;19094;50.972;3.538;2024-01-16T02:30:42;8.10;57.30
32706;DHT22;19094;50.972;3.538;2024-01-16T02:33:08;8.00;57.20
32706;DHT22;19094;50.972;3.538;2024-01-16T02:35:34;8.00;57.30
32706;DHT22;19094;50.972;3.538;2024-01-16T02:37:59;8.10;57.20
32706;DHT22;19094;50.972;3.538;2024-01-16T02:40:26;8.20;57.00
32706;DHT22;19094;50.972;3.538;2024-01-16T02:42:53;8.10;56.80
32706;DHT22;19094;50.972;3.538;2024-01-16T02:45:19;8.10;56.70
32706;DHT22;19094;50.972;3.538;2024-01-16T02:47:45;8.10;57.00
32706;DHT22;19094;50.972;3.538;2024-01-16T02:50:11;8.00;56.90
32706;DHT22;19094;50.972;3.538;2024-01-16T02:52:37;7.90;56.90
32706;DHT22;19094;50.972;3.538;2024-01-16T02:55:03;7.90;57.10
32706;DHT22;19094;50.972;3.538;2024-01-16T02:57:30;7.90;56.90
32706;DHT22;19094;50.972;3.538;2024-01-16T02:59:56;7.80;57.10
32706;DHT22;19094;50.972;3.538;2024-01-16T03:02:22;7.80;57.30
32706;DHT22;19094;50.972;3.538;2024-01-16T03:04:49;7.80;56.90
32706;DHT22;19094;50.972;3.538;2024-01-16T03:07:15;7.80;57.00
32706;DHT22;19094;50.972;3.538;2024-01-16T03:09:41;7.90;56.90
32706;DHT22;19094;50.972;3.538;2024-01-16T03:12:07;7.90;57.00
32706;DHT22;19094;50.972;3.538;2024-01-16T03:14:33;7.90;56.90
32706;DHT22;19094;50.972;3.538;2024-01-16T03:17:03;7.90;57.00
32706;DHT22;19094;50.972;3.538;2024-01-16T03:19:29;7.70;56.90
32706;DHT22;19094;50.972;3.538;2024-01-16T03:21:55;7.80;57.30
32706;DHT22;19094;50.972;3.538;2024-01-16T03:24:21;7.80;57.00
32706;DHT22;19094;50.972;3.538;2024-01-16T03:26:47;7.80;56.60
32706;DHT22;19094;50.972;3.538;2024-01-16T03:29:13;7.80;56.90
32706;DHT22;19094;50.972;3.538;2024-01-16T03:31:39;7.70;57.00
32706;DHT22;19094;50.972;3.538;2024-01-16T03:34:05;7.80;56.90
32706;DHT22;19094;50.972;3.538;2024-01-16T03:36:34;7.80;56.90
32706;DHT22;19094;50.972;3.538;2024-01-16T03:39:00;7.80;56.80
32706;DHT22;19094;50.972;3.538;2024-01-16T03:41:25;7.80;56.80
32706;DHT22;19094;50.972;3.538;2024-01-16T03:43:51;7.70;57.00
32706;DHT22;19094;50.972;3.538;2024-01-16T03:46:17;7.80;56.80
32706;DHT22;19094;50.972;3.538;2024-01-16T03:48:43;7.70;56.80
32706;DHT22;19094;50.972;3.538;2024-01-16T03:51:09;7.70;56.90
32706;DHT22;19094;50.972;3.538;2024-01-16T03:53:34;7.70;57.00
32706;DHT22;19094;50.972;3.538;2024-01-16T03:56:01;7.80;56.70
32706;DHT22;19094;50.972;3.538;2024-01-16T03:58:29;7.70;56.50
32706;DHT22;19094;50.972;3.538;2024-01-16T04:00:54;7.80;56.80
32706;DHT22;19094;50.972;3.538;2024-01-16T04:03:20;7.80;56.80
32706;DHT22;19094;50.972;3.538;2024-01-16T04:05:46;7.80;56.60
32706;DHT22;19094;50.972;3.538;2024-01-16T04:08:12;7.70;56.50
32706;DHT22;19094;50.972;3.538;2024-01-16T04:10:39;7.70;56.70
32706;DHT22;19094;50.972;3.538;2024-01-16T04:13:05;7.80;56.40
32706;DHT22;19094;50.972;3.538;2024-01-16T04:15:31;7.70;56.30
32706;DHT22;19094;50.972;3.538;2024-01-16T04:17:57;7.70;56.20
32706;DHT22;19094;50.972;3.538;2024-01-16T04:20:23;7.70;56.50
32706;DHT22;19094;50.972;3.538;2024-01-16T04:22:49;7.80;56.30
32706;DHT22;19094;50.972;3.538;2024-01-16T04:25:16;7.80;56.20
32706;DHT22;19094;50.972;3.538;2024-01-16T04:27:42;7.80;56.30
32706;DHT22;19094;50.972;3.538;2024-01-16T04:30:08;7.80;56.10
32706;DHT22;19094;50.972;3.538;2024-01-16T04:32:34;7.80;56.00
32706;DHT22;19094;50.972;3.538;2024-01-16T04:35:00;7.70;56.00
32706;DHT22;19094;50.972;3.538;2024-01-16T04:37:26;7.60;56.20
32706;DHT22;19094;50.972;3.538;2024-01-16T04:39:52;7.70;56.20
32706;DHT22;19094;50.972;3.538;2024-01-16T04:42:19;7.60;56.20
32706;DHT22;19094;50.972;3.538;2024-01-16T04:44:45;7.70;56.20
32706;DHT22;19094;50.972;3.538;2024-01-16T04:47:11;7.60;56.10
32706;DHT22;19094;50.972;3.538;2024-01-16T04:49:37;7.60;56.50
32706;DHT22;19094;50.972;3.538;2024-01-16T04:52:03;7.70;56.20
32706;DHT22;19094;50.972;3.538;2024-01-16T04:54:29;7.60;56.20
32706;DHT22;19094;50.972;3.538;2024-01-16T04:56:55;7.70;56.20
32706;DHT22;19094;50.972;3.538;2024-01-16T04:59:21;7.70;56.00
32706;DHT22;19094;50.972;3.538;2024-01-16T05:01:47;7.80;56.00
32706;DHT22;19094;50.972;3.538;2024-01-16T05:04:13;7.70;55.90
32706;DHT22;19094;50.972;3.538;2024-01-16T05:06:40;7.70;56.10
32706;DHT22;19094;50.972;3.538;2024-01-16T05:09:06;7.60;56.00
32706;DHT22;19094;50.972;3.538;2024-01-16T05:11:31;7.60;55.70
32706;DHT22;19094;50.972;3.538;2024-01-16T05:13:57;7.60;55.90
32706;DHT22;19094;50.972;3.538;2024-01-16T05:16:27;7.60;55.90
32706;DHT22;19094;50.972;3.538;2024-01-16T05:18:53;7.60;55.90
32706;DHT22;19094;50.972;3.538;2024-01-16T05:21:20;7.60;55.90
32706;DHT22;19094;50.972;3.538;2024-01-16T05:23:46;7.70;56.00
32706;DHT22;19094;50.972;3.538;2024-01-16T05:26:12;7.70;55.70
32706;DHT22;19094;50.972;3.538;2024-01-16T05:28:39;7.60;55.80
32706;DHT22;19094;50.972;3.538;2024-01-16T05:31:04;7.70;55.90
32706;DHT22;19094;50.972;3.538;2024-01-16T05:33:30;7.60;55.60
32706;DHT22;19094;50.972;3.538;2024-01-16T05:35:57;7.60;55.70
32706;DHT22;19094;50.972;3.538;2024-01-16T05:38:23;7.60;55.70
32706;DHT22;19094;50.972;3.538;2024-01-16T05:40:49;7.60;55.70
32706;DHT22;19094;50.972;3.538;2024-01-16T05:43:14;7.60;55.70
32706;DHT22;19094;50.972;3.538;2024-01-16T05:45:40;7.60;55.60
32706;DHT22;19094;50.972;3.538;2024-01-16T05:48:06;7.50;55.70
32706;DHT22;19094;50.972;3.538;2024-01-16T05:50:37;7.50;55.90
32706;DHT22;19094;50.972;3.538;2024-01-16T05:53:02;7.50;56.00
32706;DHT22;19094;50.972;3.538;2024-01-16T05:55:29;7.60;56.50
32706;DHT22;19094;50.972;3.538;2024-01-16T05:57:58;7.60;55.60
32706;DHT22;19094;50.972;3.538;2024-01-16T06:00:26;7.50;55.70
32706;DHT22;19094;50.972;3.538;2024-01-16T06:02:52;7.50;56.00
32706;DHT22;19094;50.972;3.538;2024-01-16T06:05:17;7.60;55.90
32706;DHT22;19094;50.972;3.538;2024-01-16T06:07:43;7.50;55.80
32706;DHT22;19094;50.972;3.538;2024-01-16T06:10:11;7.60;56.10
32706;DHT22;19094;50.972;3.538;2024-01-16T06:12:37;7.50;55.70
32706;DHT22;19094;50.972;3.538;2024-01-16T06:15:03;7.50;55.90
32706;DHT22;19094;50.972;3.538;2024-01-16T06:17:29;7.60;55.90
32706;DHT22;19094;50.972;3.538;2024-01-16T06:19:54;7.60;55.80
32706;DHT22;19094;50.972;3.538;2024-01-16T06:22:20;7.70;56.20
32706;DHT22;19094;50.972;3.538;2024-01-16T06:24:46;7.90;55.90
32706;DHT22;19094;50.972;3.538;2024-01-16T06:27:12;8.10;55.70
32706;DHT22;19094;50.972;3.538;2024-01-16T06:29:45;8.00;55.40
32706;DHT22;19094;50.972;3.538;2024-01-16T06:32:11;8.00;55.60
32706;DHT22;19094;50.972;3.538;2024-01-16T06:34:36;8.20;56.00
32706;DHT22;19094;50.972;3.538;2024-01-16T06:37:02;8.20;55.20
32706;DHT22;19094;50.972;3.538;2024-01-16T06:39:28;8.00;55.50
32706;DHT22;19094;50.972;3.538;2024-01-16T06:41:53;8.10;55.50
32706;DHT22;19094;50.972;3.538;2024-01-16T06:44:19;8.10;55.60
32706;DHT22;19094;50.972;3.538;2024-01-16T06:46:45;8.10;55.20
32706;DHT22;19094;50.972;3.538;2024-01-16T06:49:10;8.10;55.40
32706;DHT22;19094;50.972;3.538;2024-01-16T06:51:36;8.30;55.40
32706;DHT22;19094;50.972;3.538;2024-01-16T06:54:02;8.10;55.30
32706;DHT22;19094;50.972;3.538;2024-01-16T06:56:29;8.50;56.90
32706;DHT22;19094;50.972;3.538;2024-01-16T06:58:55;8.30;55.50
32706;DHT22;19094;50.972;3.538;2024-01-16T07:01:21;8.30;54.70
32706;DHT22;19094;50.972;3.538;2024-01-16T07:03:47;8.20;55.90
32706;DHT22;19094;50.972;3.538;2024-01-16T07:06:13;8.20;55.00
32706;DHT22;19094;50.972;3.538;2024-01-16T07:08:38;8.10;54.70
32706;DHT22;19094;50.972;3.538;2024-01-16T07:11:04;8.20;55.10
32706;DHT22;19094;50.972;3.538;2024-01-16T07:13:33;8.00;54.80
32706;DHT22;19094;50.972;3.538;2024-01-16T07:15:59;8.10;55.40
32706;DHT22;19094;50.972;3.538;2024-01-16T07:18:27;8.10;55.30
32706;DHT22;19094;50.972;3.538;2024-01-16T07:20:53;8.10;55.40
32706;DHT22;19094;50.972;3.538;2024-01-16T07:23:19;8.00;55.00
32706;DHT22;19094;50.972;3.538;2024-01-16T07:25:45;8.10;55.50
32706;DHT22;19094;50.972;3.538;2024-01-16T07:28:11;8.10;55.40
32706;DHT22;19094;50.972;3.538;2024-01-16T07:30:36;8.20;55.00
32706;DHT22;19094;50.972;3.538;2024-01-16T07:33:03;8.10;55.20
32706;DHT22;19094;50.972;3.538;2024-01-16T07:35:29;8.20;55.30
32706;DHT22;19094;50.972;3.538;2024-01-16T07:37:54;8.10;54.90
32706;DHT22;19094;50.972;3.538;2024-01-16T07:40:20;8.10;55.20
32706;DHT22;19094;50.972;3.538;2024-01-16T07:42:46;8.20;55.50
32706;DHT22;19094;50.972;3.538;2024-01-16T07:45:12;8.30;55.40
32706;DHT22;19094;50.972;3.538;2024-01-16T07:47:37;8.20;54.90
32706;DHT22;19094;50.972;3.538;2024-01-16T07:50:03;8.30;54.80
32706;DHT22;19094;50.972;3.538;2024-01-16T07:52:30;8.40;54.90
32706;DHT22;19094;50.972;3.538;2024-01-16T07:54:56;8.30;54.50
32706;DHT22;19094;50.972;3.538;2024-01-16T07:57:21;8.40;54.80
32706;DHT22;19094;50.972;3.538;2024-01-16T07:59:47;8.30;55.00
32706;DHT22;19094;50.972;3.538;2024-01-16T08:02:13;8.40;55.20
32706;DHT22;19094;50.972;3.538;2024-01-16T08:04:39;8.40;54.70
32706;DHT22;19094;50.972;3.538;2024-01-16T08:07:04;8.30;54.90
32706;DHT22;19094;50.972;3.538;2024-01-16T08:09:30;8.40;54.80
32706;DHT22;19094;50.972;3.538;2024-01-16T08:11:56;8.40;54.90
32706;DHT22;19094;50.972;3.538;2024-01-16T08:14:22;8.50;55.00
32706;DHT22;19094;50.972;3.538;2024-01-16T08:16:47;8.50;54.50
32706;DHT22;19094;50.972;3.538;2024-01-16T08:19:13;8.50;54.90
32706;DHT22;19094;50.972;3.538;2024-01-16T08:21:40;8.60;54.70
32706;DHT22;19094;50.972;3.538;2024-01-16T08:24:06;8.60;54.70
32706;DHT22;19094;50.972;3.538;2024-01-16T08:26:31;8.50;54.80
32706;DHT22;19094;50.972;3.538;2024-01-16T08:28:58;8.50;54.70
32706;DHT22;19094;50.972;3.538;2024-01-16T08:31:23;8.40;54.60
32706;DHT22;19094;50.972;3.538;2024-01-16T08:33:49;8.50;55.00
32706;DHT22;19094;50.972;3.538;2024-01-16T08:36:15;8.60;54.90
32706;DHT22;19094;50.972;3.538;2024-01-16T08:38:41;8.50;54.40
32706;DHT22;19094;50.972;3.538;2024-01-16T08:41:06;8.60;54.60
32706;DHT22;19094;50.972;3.538;2024-01-16T08:43:33;8.60;54.80
32706;DHT22;19094;50.972;3.538;2024-01-16T08:45:59;8.60;54.60
32706;DHT22;19094;50.972;3.538;2024-01-16T08:48:25;8.70;54.80
32706;DHT22;19094;50.972;3.538;2024-01-16T08:50:51;8.60;54.60
32706;DHT22;19094;50.972;3.538;2024-01-16T08:53:17;8.60;54.70
32706;DHT22;19094;50.972;3.538;2024-01-16T08:55:43;8.60;54.90
32706;DHT22;19094;50.972;3.538;2024-01-16T08:58:08;8.70;54.60
32706;DHT22;19094;50.972;3.538;2024-01-16T09:00:34;8.70;54.60
32706;DHT22;19094;50.972;3.538;2024-01-16T09:03:00;8.60;54.60
32706;DHT22;19094;50.972;3.538;2024-01-16T09:05:27;8.50;54.40
32706;DHT22;19094;50.972;3.538;2024-01-16T09:07:52;8.60;55.00
32706;DHT22;19094;50.972;3.538;2024-01-16T09:10:18;8.50;54.70
32706;DHT22;19094;50.972;3.538;2024-01-16T09:12:45;8.70;55.10
32706;DHT22;19094;50.972;3.538;2024-01-16T09:15:11;8.60;54.70
32706;DHT22;19094;50.972;3.538;2024-01-16T09:17:36;8.60;54.60
32706;DHT22;19094;50.972;3.538;2024-01-16T09:20:02;8.60;54.90
32706;DHT22;19094;50.972;3.538;2024-01-16T09:22:28;8.70;54.50
32706;DHT22;19094;50.972;3.538;2024-01-16T09:24:54;8.70;54.60
32706;DHT22;19094;50.972;3.538;2024-01-16T09:27:19;8.60;54.60
32706;DHT22;19094;50.972;3.538;2024-01-16T09:29:45;8.70;54.60
32706;DHT22;19094;50.972;3.538;2024-01-16T09:32:11;8.60;54.60
32706;DHT22;19094;50.972;3.538;2024-01-16T09:34:37;8.60;54.90
32706;DHT22;19094;50.972;3.538;2024-01-16T09:37:02;8.50;54.80
32706;DHT22;19094;50.972;3.538;2024-01-16T09:39:29;8.50;54.70
32706;DHT22;19094;50.972;3.538;2024-01-16T09:42:00;8.60;54.80
32706;DHT22;19094;50.972;3.538;2024-01-16T09:44:28;8.60;54.90
32706;DHT22;19094;50.972;3.538;2024-01-16T09:46:55;8.60;54.70
32706;DHT22;19094;50.972;3.538;2024-01-16T09:49:23;8.50;54.60
32706;DHT22;19094;50.972;3.538;2024-01-16T09:51:49;8.50;54.80
32706;DHT22;19094;50.972;3.538;2024-01-16T09:54:15;8.60;54.90
32706;DHT22;19094;50.972;3.538;2024-01-16T09:56:44;8.70;54.90
32706;DHT22;19094;50.972;3.538;2024-01-16T09:59:16;8.50;54.50
32706;DHT22;19094;50.972;3.538;2024-01-16T10:01:43;8.50;54.80
32706;DHT22;19094;50.972;3.538;2024-01-16T10:04:09;8.40;55.10
32706;DHT22;19094;50.972;3.538;2024-01-16T10:06:38;8.40;55.00
32706;DHT22;19094;50.972;3.538;2024-01-16T10:09:03;8.40;54.60
32706;DHT22;19094;50.972;3.538;2024-01-16T10:11:30;8.40;54.60
32706;DHT22;19094;50.972;3.538;2024-01-16T10:13:59;8.40;54.90
32706;DHT22;19094;50.972;3.538;2024-01-16T10:17:00;8.40;54.70
32706;DHT22;19094;50.972;3.538;2024-01-16T10:19:48;8.50;55.00
32706;DHT22;19094;50.972;3.538;2024-01-16T10:22:22;8.60;54.50
32706;DHT22;19094;50.972;3.538;2024-01-16T10:25:13;8.60;54.40
32706;DHT22;19094;50.972;3.538;2024-01-16T10:27:42;8.60;54.40
32706;DHT22;19094;50.972;3.538;2024-01-16T10:30:08;8.70;54.30
32706;DHT22;19094;50.972;3.538;2024-01-16T10:32:37;8.70;54.10
32706;DHT22;19094;50.972;3.538;2024-01-16T10:35:07;8.80;54.40
32706;DHT22;19094;50.972;3.538;2024-01-16T10:37:50;8.80;54.10
32706;DHT22;19094;50.972;3.538;2024-01-16T10:40:24;8.80;53.70
32706;DHT22;19094;50.972;3.538;2024-01-16T10:42:58;8.90;54.20
32706;DHT22;19094;50.972;3.538;2024-01-16T10:45:24;9.00;53.60
32706;DHT22;19094;50.972;3.538;2024-01-16T10:50:27;9.00;53.50
32706;DHT22;19094;50.972;3.538;2024-01-16T10:52:54;8.90;53.50
32706;DHT22;19094;50.972;3.538;2024-01-16T10:55:22;9.10;53.70
32706;DHT22;19094;50.972;3.538;2024-01-16T10:57:49;9.10;53.40
32706;DHT22;19094;50.972;3.538;2024-01-16T11:00:19;9.20;53.30
32706;DHT22;19094;50.972;3.538;2024-01-16T11:05:17;9.10;53.00
32706;DHT22;19094;50.972;3.538;2024-01-16T11:07:44;9.30;53.00
32706;DHT22;19094;50.972;3.538;2024-01-16T11:10:10;9.30;53.00
32706;DHT22;19094;50.972;3.538;2024-01-16T11:12:38;9.40;53.00
32706;DHT22;19094;50.972;3.538;2024-01-16T11:15:08;9.40;52.20
32706;DHT22;19094;50.972;3.538;2024-01-16T11:17:37;9.50;52.40
32706;DHT22;19094;50.972;3.538;2024-01-16T11:20:04;9.60;51.80
32706;DHT22;19094;50.972;3.538;2024-01-16T11:22:40;9.70;51.50
32706;DHT22;19094;50.972;3.538;2024-01-16T11:25:13;9.80;50.90
32706;DHT22;19094;50.972;3.538;2024-01-16T11:27:41;10.00;49.80
32706;DHT22;19094;50.972;3.538;2024-01-16T11:30:08;10.30;49.10
32706;DHT22;19094;50.972;3.538;2024-01-16T11:32:39;11.10;47.10
32706;DHT22;19094;50.972;3.538;2024-01-16T11:35:10;11.80;44.70
32706;DHT22;19094;50.972;3.538;2024-01-16T11:37:39;12.30;43.60
32706;DHT22;19094;50.972;3.538;2024-01-16T11:42:48;13.00;42.70
32706;DHT22;19094;50.972;3.538;2024-01-16T11:48:15;13.50;40.80
32706;DHT22;19094;50.972;3.538;2024-01-16T11:50:42;13.80;40.30
32706;DHT22;19094;50.972;3.538;2024-01-16T11:53:08;13.90;40.60
32706;DHT22;19094;50.972;3.538;2024-01-16T11:55:35;14.00;40.40
32706;DHT22;19094;50.972;3.538;2024-01-16T12:00:48;14.50;38.00
32706;DHT22;19094;50.972;3.538;2024-01-16T12:03:18;14.70;37.40
32706;DHT22;19094;50.972;3.538;2024-01-16T12:05:58;14.50;38.30
32706;DHT22;19094;50.972;3.538;2024-01-16T12:08:24;14.80;37.20
32706;DHT22;19094;50.972;3.538;2024-01-16T12:10:50;15.00;36.60
32706;DHT22;19094;50.972;3.538;2024-01-16T12:13:16;15.10;35.30
32706;DHT22;19094;50.972;3.538;2024-01-16T12:15:42;15.20;35.00
32706;DHT22;19094;50.972;3.538;2024-01-16T12:18:08;15.40;34.90
32706;DHT22;19094;50.972;3.538;2024-01-16T12:20:37;15.60;34.70
32706;DHT22;19094;50.972;3.538;2024-01-16T12:23:04;15.70;34.10
32706;DHT22;19094;50.972;3.538;2024-01-16T12:25:32;15.70;34.00
32706;DHT22;19094;50.972;3.538;2024-01-16T12:30:32;16.10;33.80
32706;DHT22;19094;50.972;3.538;2024-01-16T12:35:38;16.40;33.20
32706;DHT22;19094;50.972;3.538;2024-01-16T12:38:05;16.50;33.30
32706;DHT22;19094;50.972;3.538;2024-01-16T12:40:32;16.60;33.00
32706;DHT22;19094;50.972;3.538;2024-01-16T12:42:59;16.60;32.70
32706;DHT22;19094;50.972;3.538;2024-01-16T12:45:24;16.60;32.10
32706;DHT22;19094;50.972;3.538;2024-01-16T12:47:54;16.70;32.30
32706;DHT22;19094;50.972;3.538;2024-01-16T12:50:24;16.90;32.10
32706;DHT22;19094;50.972;3.538;2024-01-16T12:53:00;17.00;31.90
32706;DHT22;19094;50.972;3.538;2024-01-16T12:55:26;16.40;34.30
32706;DHT22;19094;50.972;3.538;2024-01-16T13:00:37;17.00;32.20
32706;DHT22;19094;50.972;3.538;2024-01-16T13:03:05;17.20;31.90
32706;DHT22;19094;50.972;3.538;2024-01-16T13:05:30;17.30;32.00
32706;DHT22;19094;50.972;3.538;2024-01-16T13:08:03;17.40;31.50
32706;DHT22;19094;50.972;3.538;2024-01-16T13:10:29;17.40;31.30
32706;DHT22;19094;50.972;3.538;2024-01-16T13:13:17;17.50;31.00
32706;DHT22;19094;50.972;3.538;2024-01-16T13:15:46;17.40;31.50
32706;DHT22;19094;50.972;3.538;2024-01-16T13:18:22;17.40;31.90
32706;DHT22;19094;50.972;3.538;2024-01-16T13:20:49;17.30;31.70
32706;DHT22;19094;50.972;3.538;2024-01-16T13:23:15;17.40;31.10
32706;DHT22;19094;50.972;3.538;2024-01-16T13:25:42;17.60;31.10
32706;DHT22;19094;50.972;3.538;2024-01-16T13:28:09;17.70;31.20
32706;DHT22;19094;50.972;3.538;2024-01-16T13:30:35;17.80;30.70
32706;DHT22;19094;50.972;3.538;2024-01-16T13:33:02;18.00;30.10
32706;DHT22;19094;50.972;3.538;2024-01-16T13:35:28;18.10;30.30
32706;DHT22;19094;50.972;3.538;2024-01-16T13:37:53;18.10;30.10
32706;DHT22;19094;50.972;3.538;2024-01-16T13:40:19;18.20;30.00
32706;DHT22;19094;50.972;3.538;2024-01-16T13:42:48;18.20;30.20
32706;DHT22;19094;50.972;3.538;2024-01-16T13:45:14;18.30;31.10
32706;DHT22;19094;50.972;3.538;2024-01-16T13:47:40;18.30;30.10
32706;DHT22;19094;50.972;3.538;2024-01-16T13:50:07;18.30;30.40
32706;DHT22;19094;50.972;3.538;2024-01-16T13:52:34;18.30;30.60
32706;DHT22;19094;50.972;3.538;2024-01-16T13:55:00;18.30;30.70
32706;DHT22;19094;50.972;3.538;2024-01-16T13:57:31;18.30;30.50
32706;DHT22;19094;50.972;3.538;2024-01-16T13:59:57;18.40;30.60
32706;DHT22;19094;50.972;3.538;2024-01-16T14:02:23;18.30;30.80
32706;DHT22;19094;50.972;3.538;2024-01-16T14:04:50;18.30;30.80
32706;DHT22;19094;50.972;3.538;2024-01-16T14:07:15;18.00;31.50
32706;DHT22;19094;50.972;3.538;2024-01-16T14:09:42;17.60;32.20
32706;DHT22;19094;50.972;3.538;2024-01-16T14:12:08;17.10;32.80
32706;DHT22;19094;50.972;3.538;2024-01-16T14:14:34;16.80;34.10
32706;DHT22;19094;50.972;3.538;2024-01-16T14:17:01;16.60;34.50
32706;DHT22;19094;50.972;3.538;2024-01-16T14:19:28;16.50;35.30
32706;DHT22;19094;50.972;3.538;2024-01-16T14:21:55;16.40;34.90
32706;DHT22;19094;50.972;3.538;2024-01-16T14:24:21;16.30;35.00
32706;DHT22;19094;50.972;3.538;2024-01-16T14:26:47;16.20;36.30
32706;DHT22;19094;50.972;3.538;2024-01-16T14:29:12;16.10;37.20
32706;DHT22;19094;50.972;3.538;2024-01-16T14:31:41;16.00;35.10
32706;DHT22;19094;50.972;3.538;2024-01-16T14:34:14;15.90;37.20
32706;DHT22;19094;50.972;3.538;2024-01-16T14:36:40;16.00;36.70
32706;DHT22;19094;50.972;3.538;2024-01-16T14:39:06;16.00;35.20
32706;DHT22;19094;50.972;3.538;2024-01-16T14:41:33;16.00;36.00
32706;DHT22;19094;50.972;3.538;2024-01-16T14:43:58;16.00;35.20
32706;DHT22;19094;50.972;3.538;2024-01-16T14:46:24;15.90;36.10
32706;DHT22;19094;50.972;3.538;2024-01-16T14:48:50;15.60;34.90
32706;DHT22;19094;50.972;3.538;2024-01-16T14:51:15;15.00;35.90
32706;DHT22;19094;50.972;3.538;2024-01-16T14:53:41;14.40;36.60
32706;DHT22;19094;50.972;3.538;2024-01-16T14:56:07;13.90;38.10
32706;DHT22;19094;50.972;3.538;2024-01-16T14:58:32;13.10;40.80
32706;DHT22;19094;50.972;3.538;2024-01-16T15:00:58;12.50;42.60
32706;DHT22;19094;50.972;3.538;2024-01-16T15:03:24;12.00;43.50
32706;DHT22;19094;50.972;3.538;2024-01-16T15:05:50;11.80;44.60
32706;DHT22;19094;50.972;3.538;2024-01-16T15:08:18;11.60;45.00
32706;DHT22;19094;50.972;3.538;2024-01-16T15:10:44;11.40;45.30
32706;DHT22;19094;50.972;3.538;2024-01-16T15:13:10;11.20;45.60
32706;DHT22;19094;50.972;3.538;2024-01-16T15:15:37;11.00;45.90
32706;DHT22;19094;50.972;3.538;2024-01-16T15:18:03;11.00;46.50
32706;DHT22;19094;50.972;3.538;2024-01-16T15:20:29;10.90;46.30
32706;DHT22;19094;50.972;3.538;2024-01-16T15:22:55;10.90;46.60
32706;DHT22;19094;50.972;3.538;2024-01-16T15:25:22;10.90;46.50
32706;DHT22;19094;50.972;3.538;2024-01-16T15:27:49;10.80;46.50
32706;DHT22;19094;50.972;3.538;2024-01-16T15:30:22;10.80;46.80
32706;DHT22;19094;50.972;3.538;2024-01-16T15:32:53;10.80;46.70
32706;DHT22;19094;50.972;3.538;2024-01-16T15:35:19;10.70;46.60
32706;DHT22;19094;50.972;3.538;2024-01-16T15:37:48;10.70;46.40
32706;DHT22;19094;50.972;3.538;2024-01-16T15:40:14;10.60;46.40
32706;DHT22;19094;50.972;3.538;2024-01-16T15:42:41;10.50;46.60
32706;DHT22;19094;50.972;3.538;2024-01-16T15:45:07;10.50;46.80
32706;DHT22;19094;50.972;3.538;2024-01-16T15:47:35;10.50;46.40
32706;DHT22;19094;50.972;3.538;2024-01-16T15:50:02;10.40;46.80
32706;DHT22;19094;50.972;3.538;2024-01-16T15:52:32;10.40;46.60
32706;DHT22;19094;50.972;3.538;2024-01-16T15:54:59;10.40;46.80
32706;DHT22;19094;50.972;3.538;2024-01-16T15:57:24;10.40;47.30
32706;DHT22;19094;50.972;3.538;2024-01-16T15:59:50;10.40;47.20
32706;DHT22;19094;50.972;3.538;2024-01-16T16:02:16;10.40;47.00